Cosco Nagoya — 3ESJ8 — position and weather

sailwx.info

Track history (hours):
 
Tides and Currents Weather Stations Pressure Air Temp Water Temp Dewpoint Dewpoint Depression Visibility Wind Speed Wind Dir Waves Ship Positions

Cosco Nagoya

Last reported at 2017-Jun-17 16:18 UTC. Time now 2017-Jun-22 22:31 UTC.
Position S 30°59' E 032°28'.

Length 260 m; draft 12.7 m.

Type: Cargo ship. MMSI: 370320000.

Date/timePositionNaut miles runAvg speedWind from/ knotsBaromVisibWave heightAir tempDewpointWater temp
2017-Jun-17 16:18S 30°59' E 032°28'515.8
2017-Jun-17 16:01S 30°57' E 032°32'815.4
2017-Jun-17 15:31S 30°55' E 032°41'714.5
2017-Jun-17 15:01S 30°52' E 032°49'713.8
2017-Jun-17 14:30S 30°50' E 032°56'1413.8
2017-Jun-17 13:31S 30°45' E 033°12'714.7
2017-Jun-17 13:00S 30°43' E 033°20'714.5
2017-Jun-17 12:31S 30°40' E 033°27'714.5
2017-Jun-17 12:00S 30°38' E 033°35'  
2017-Jun-13 12:25S 19°25' E 056°04'815.1
2017-Jun-13 11:55S 19°21' E 056°11'  
Track history (hours):
 
Tides and Currents Weather Stations Pressure Air Temp Water Temp Dewpoint Dewpoint Depression Visibility Wind Speed Wind Dir Waves Ship Positions

Cosco Nagoya

Last reported at 2017-Jun-17 16:18 UTC. Time now 2017-Jun-22 22:31 UTC.
Position S 30°59' E 032°28'.

Length 260 m; draft 12.7 m.

Type: Cargo ship. MMSI: 370320000.

Date/timePositionNaut miles runAvg speedWind from/ knotsBaromVisibWave heightAir tempDewpointWater temp
2017-Jun-17 16:18S 30°59' E 032°28'515.8
2017-Jun-17 16:01S 30°57' E 032°32'815.4
2017-Jun-17 15:31S 30°55' E 032°41'714.5
2017-Jun-17 15:01S 30°52' E 032°49'713.8
2017-Jun-17 14:30S 30°50' E 032°56'1413.8
2017-Jun-17 13:31S 30°45' E 033°12'714.7
2017-Jun-17 13:00S 30°43' E 033°20'714.5
2017-Jun-17 12:31S 30°40' E 033°27'714.5
2017-Jun-17 12:00S 30°38' E 033°35'  
2017-Jun-13 12:25S 19°25' E 056°04'815.1
2017-Jun-13 11:55S 19°21' E 056°11'  

Dump ship's entire track history